sensor_id;sensor_type;location;lat;lon;timestamp;pressure;altitude;pressure_sealevel;temperature;humidity
50302;BME280;36550;50.472;19.744;2023-04-24T00:01:40;97276.71;;;8.20;69.81
50302;BME280;36550;50.472;19.744;2023-04-24T00:04:24;97277.58;;;8.18;69.90
50302;BME280;36550;50.472;19.744;2023-04-24T00:07:10;97274.86;;;8.15;69.90
50302;BME280;36550;50.472;19.744;2023-04-24T00:09:54;97272.48;;;8.14;69.82
50302;BME280;36550;50.472;19.744;2023-04-24T00:12:38;97268.17;;;8.12;69.86
50302;BME280;36550;50.472;19.744;2023-04-24T00:15:22;97270.23;;;8.11;69.97
50302;BME280;36550;50.472;19.744;2023-04-24T00:18:06;97265.71;;;8.09;69.96
50302;BME280;36550;50.472;19.744;2023-04-24T00:20:50;97267.86;;;8.05;70.01
50302;BME280;36550;50.472;19.744;2023-04-24T00:23:34;97264.00;;;8.01;70.14
50302;BME280;36550;50.472;19.744;2023-04-24T00:26:18;97261.29;;;7.97;70.21
50302;BME280;36550;50.472;19.744;2023-04-24T00:29:02;97261.98;;;7.93;70.30
50302;BME280;36550;50.472;19.744;2023-04-24T00:31:46;97261.23;;;7.88;70.41
50302;BME280;36550;50.472;19.744;2023-04-24T00:34:30;97260.83;;;7.83;70.30
50302;BME280;36550;50.472;19.744;2023-04-24T00:37:15;97257.55;;;7.80;70.45
50302;BME280;36550;50.472;19.744;2023-04-24T00:39:59;97254.00;;;7.77;70.54
50302;BME280;36550;50.472;19.744;2023-04-24T00:42:44;97246.84;;;7.71;70.82
50302;BME280;36550;50.472;19.744;2023-04-24T00:45:28;97247.11;;;7.63;71.06
50302;BME280;36550;50.472;19.744;2023-04-24T00:48:14;97247.41;;;7.54;71.31
50302;BME280;36550;50.472;19.744;2023-04-24T00:50:58;97247.34;;;7.44;71.56
50302;BME280;36550;50.472;19.744;2023-04-24T00:53:48;97246.50;;;7.36;71.60
50302;BME280;36550;50.472;19.744;2023-04-24T00:56:32;97245.34;;;7.30;72.03
50302;BME280;36550;50.472;19.744;2023-04-24T00:59:17;97242.36;;;7.21;72.06
50302;BME280;36550;50.472;19.744;2023-04-24T01:02:02;97240.11;;;7.12;72.58
50302;BME280;36550;50.472;19.744;2023-04-24T01:04:46;97236.15;;;7.03;73.56
50302;BME280;36550;50.472;19.744;2023-04-24T01:07:30;97234.55;;;6.95;73.96
50302;BME280;36550;50.472;19.744;2023-04-24T01:10:15;97230.74;;;6.88;74.32
50302;BME280;36550;50.472;19.744;2023-04-24T01:13:31;97225.40;;;6.82;74.58
50302;BME280;36550;50.472;19.744;2023-04-24T01:16:15;97222.84;;;6.77;74.80
50302;BME280;36550;50.472;19.744;2023-04-24T01:19:00;97222.59;;;6.75;74.86
50302;BME280;36550;50.472;19.744;2023-04-24T01:21:47;97219.55;;;6.74;74.89
50302;BME280;36550;50.472;19.744;2023-04-24T01:24:31;97218.35;;;6.74;74.84
50302;BME280;36550;50.472;19.744;2023-04-24T01:27:15;97220.77;;;6.73;74.81
50302;BME280;36550;50.472;19.744;2023-04-24T01:30:00;97218.48;;;6.69;74.91
50302;BME280;36550;50.472;19.744;2023-04-24T01:32:44;97218.12;;;6.65;75.58
50302;BME280;36550;50.472;19.744;2023-04-24T01:35:28;97218.96;;;6.61;76.10
50302;BME280;36550;50.472;19.744;2023-04-24T01:38:12;97218.81;;;6.58;75.82
50302;BME280;36550;50.472;19.744;2023-04-24T01:40:56;97208.27;;;6.55;75.77
50302;BME280;36550;50.472;19.744;2023-04-24T01:43:40;97207.38;;;6.53;75.57
50302;BME280;36550;50.472;19.744;2023-04-24T01:46:25;97203.25;;;6.48;75.71
50302;BME280;36550;50.472;19.744;2023-04-24T01:49:08;97196.59;;;6.44;76.04
50302;BME280;36550;50.472;19.744;2023-04-24T01:51:52;97192.23;;;6.42;76.12
50302;BME280;36550;50.472;19.744;2023-04-24T01:54:36;97189.52;;;6.44;75.93
50302;BME280;36550;50.472;19.744;2023-04-24T01:57:20;97186.03;;;6.47;75.85
50302;BME280;36550;50.472;19.744;2023-04-24T02:00:05;97185.55;;;6.49;75.84
50302;BME280;36550;50.472;19.744;2023-04-24T02:02:51;97187.84;;;6.51;75.70
50302;BME280;36550;50.472;19.744;2023-04-24T02:05:35;97186.30;;;6.55;75.81
50302;BME280;36550;50.472;19.744;2023-04-24T02:08:19;97181.80;;;6.60;75.77
50302;BME280;36550;50.472;19.744;2023-04-24T02:11:03;97177.02;;;6.63;75.73
50302;BME280;36550;50.472;19.744;2023-04-24T02:13:47;97179.77;;;6.67;75.60
50302;BME280;36550;50.472;19.744;2023-04-24T02:16:31;97176.73;;;6.69;75.56
50302;BME280;36550;50.472;19.744;2023-04-24T02:19:16;97174.96;;;6.69;75.46
50302;BME280;36550;50.472;19.744;2023-04-24T02:22:00;97172.31;;;6.69;75.32
50302;BME280;36550;50.472;19.744;2023-04-24T02:24:44;97171.58;;;6.66;75.08
50302;BME280;36550;50.472;19.744;2023-04-24T02:27:28;97170.59;;;6.63;75.02
50302;BME280;36550;50.472;19.744;2023-04-24T02:30:12;97171.10;;;6.64;74.92
50302;BME280;36550;50.472;19.744;2023-04-24T02:32:56;97165.21;;;6.63;74.90
50302;BME280;36550;50.472;19.744;2023-04-24T02:35:40;97158.70;;;6.64;74.85
50302;BME280;36550;50.472;19.744;2023-04-24T02:38:24;97159.39;;;6.65;74.97
50302;BME280;36550;50.472;19.744;2023-04-24T02:41:07;97154.05;;;6.64;74.98
50302;BME280;36550;50.472;19.744;2023-04-24T02:43:51;97149.36;;;6.61;74.93
50302;BME280;36550;50.472;19.744;2023-04-24T02:46:35;97149.41;;;6.59;74.90
50302;BME280;36550;50.472;19.744;2023-04-24T02:49:18;97152.59;;;6.56;74.92
50302;BME280;36550;50.472;19.744;2023-04-24T02:52:02;97151.64;;;6.53;74.91
50302;BME280;36550;50.472;19.744;2023-04-24T02:54:46;97151.83;;;6.52;74.83
50302;BME280;36550;50.472;19.744;2023-04-24T02:57:30;97149.13;;;6.50;74.76
50302;BME280;36550;50.472;19.744;2023-04-24T03:00:14;97146.88;;;6.50;74.81
50302;BME280;36550;50.472;19.744;2023-04-24T03:02:58;97146.95;;;6.50;74.94
50302;BME280;36550;50.472;19.744;2023-04-24T03:05:42;97145.64;;;6.50;74.96
50302;BME280;36550;50.472;19.744;2023-04-24T03:08:26;97146.05;;;6.47;74.84
50302;BME280;36550;50.472;19.744;2023-04-24T03:11:11;97148.31;;;6.40;74.74
50302;BME280;36550;50.472;19.744;2023-04-24T03:13:55;97147.80;;;6.34;74.73
50302;BME280;36550;50.472;19.744;2023-04-24T03:16:39;97144.83;;;6.26;74.70
50302;BME280;36550;50.472;19.744;2023-04-24T03:19:23;97142.59;;;6.19;74.71
50302;BME280;36550;50.472;19.744;2023-04-24T03:22:07;97145.17;;;6.15;74.74
50302;BME280;36550;50.472;19.744;2023-04-24T03:24:52;97144.46;;;6.14;74.82
50302;BME280;36550;50.472;19.744;2023-04-24T03:27:38;97140.08;;;6.16;74.90
50302;BME280;36550;50.472;19.744;2023-04-24T03:30:23;97140.95;;;6.21;75.03
50302;BME280;36550;50.472;19.744;2023-04-24T03:33:07;97141.31;;;6.25;75.12
50302;BME280;36550;50.472;19.744;2023-04-24T03:35:50;97145.77;;;6.28;75.16
50302;BME280;36550;50.472;19.744;2023-04-24T03:38:34;97145.88;;;6.30;75.14
50302;BME280;36550;50.472;19.744;2023-04-24T03:41:18;97145.57;;;6.29;75.10
50302;BME280;36550;50.472;19.744;2023-04-24T03:44:02;97144.84;;;6.29;75.42
50302;BME280;36550;50.472;19.744;2023-04-24T03:46:46;97144.51;;;6.31;75.88
50302;BME280;36550;50.472;19.744;2023-04-24T03:49:29;97147.65;;;6.34;76.13
50302;BME280;36550;50.472;19.744;2023-04-24T03:52:13;97146.65;;;6.39;76.16
50302;BME280;36550;50.472;19.744;2023-04-24T03:54:57;97147.79;;;6.43;76.38
50302;BME280;36550;50.472;19.744;2023-04-24T03:57:41;97148.75;;;6.47;76.29
50302;BME280;36550;50.472;19.744;2023-04-24T04:00:25;97152.92;;;6.51;76.36
50302;BME280;36550;50.472;19.744;2023-04-24T04:03:35;97151.42;;;6.60;76.47
50302;BME280;36550;50.472;19.744;2023-04-24T04:06:19;97154.31;;;6.71;76.89
50302;BME280;36550;50.472;19.744;2023-04-24T04:09:05;97153.51;;;6.84;76.87
50302;BME280;36550;50.472;19.744;2023-04-24T04:11:49;97154.57;;;6.95;76.74
50302;BME280;36550;50.472;19.744;2023-04-24T04:14:33;97150.40;;;7.06;76.71
50302;BME280;36550;50.472;19.744;2023-04-24T04:17:18;97148.66;;;7.18;76.61
50302;BME280;36550;50.472;19.744;2023-04-24T04:20:02;97145.85;;;7.29;76.73
50302;BME280;36550;50.472;19.744;2023-04-24T04:22:49;97146.02;;;7.42;76.86
50302;BME280;36550;50.472;19.744;2023-04-24T04:25:33;97146.55;;;7.55;76.77
50302;BME280;36550;50.472;19.744;2023-04-24T04:28:18;97140.39;;;7.67;76.58
50302;BME280;36550;50.472;19.744;2023-04-24T04:31:03;97142.11;;;7.80;76.47
50302;BME280;36550;50.472;19.744;2023-04-24T04:33:48;97139.58;;;7.93;76.45
50302;BME280;36550;50.472;19.744;2023-04-24T04:36:33;97136.35;;;8.08;76.45
50302;BME280;36550;50.472;19.744;2023-04-24T04:39:20;97139.11;;;8.26;76.37
50302;BME280;36550;50.472;19.744;2023-04-24T04:42:04;97135.54;;;8.43;76.28
50302;BME280;36550;50.472;19.744;2023-04-24T04:44:48;97133.45;;;8.59;76.22
50302;BME280;36550;50.472;19.744;2023-04-24T04:47:32;97133.24;;;8.76;76.20
50302;BME280;36550;50.472;19.744;2023-04-24T04:50:16;97127.41;;;8.93;76.04
50302;BME280;36550;50.472;19.744;2023-04-24T04:53:02;97125.75;;;9.10;75.93
50302;BME280;36550;50.472;19.744;2023-04-24T04:55:46;97125.35;;;9.27;75.85
50302;BME280;36550;50.472;19.744;2023-04-24T04:58:30;97128.95;;;9.42;75.61
50302;BME280;36550;50.472;19.744;2023-04-24T05:01:14;97128.03;;;9.58;75.41
50302;BME280;36550;50.472;19.744;2023-04-24T05:03:58;97127.38;;;9.74;75.23
50302;BME280;36550;50.472;19.744;2023-04-24T05:06:42;97131.16;;;9.89;75.06
50302;BME280;36550;50.472;19.744;2023-04-24T05:09:27;97130.85;;;10.05;74.80
50302;BME280;36550;50.472;19.744;2023-04-24T05:12:13;97132.04;;;10.19;74.86
50302;BME280;36550;50.472;19.744;2023-04-24T05:14:57;97129.50;;;10.31;74.83
50302;BME280;36550;50.472;19.744;2023-04-24T05:17:41;97131.73;;;10.45;74.78
50302;BME280;36550;50.472;19.744;2023-04-24T05:20:25;97129.44;;;10.57;74.80
50302;BME280;36550;50.472;19.744;2023-04-24T05:23:09;97127.02;;;10.70;74.81
50302;BME280;36550;50.472;19.744;2023-04-24T05:25:53;97127.83;;;10.84;74.61
50302;BME280;36550;50.472;19.744;2023-04-24T05:28:37;97127.96;;;10.97;74.37
50302;BME280;36550;50.472;19.744;2023-04-24T05:31:21;97127.63;;;11.10;74.31
50302;BME280;36550;50.472;19.744;2023-04-24T05:34:05;97124.98;;;11.25;74.37
50302;BME280;36550;50.472;19.744;2023-04-24T05:36:50;97124.79;;;11.42;74.33
50302;BME280;36550;50.472;19.744;2023-04-24T05:39:34;97125.33;;;11.60;74.32
50302;BME280;36550;50.472;19.744;2023-04-24T05:42:19;97125.23;;;11.78;74.36
50302;BME280;36550;50.472;19.744;2023-04-24T05:45:03;97118.20;;;11.97;74.45
50302;BME280;36550;50.472;19.744;2023-04-24T05:47:48;97120.75;;;12.18;74.22
50302;BME280;36550;50.472;19.744;2023-04-24T05:50:32;97120.77;;;12.36;73.92
50302;BME280;36550;50.472;19.744;2023-04-24T05:53:16;97122.30;;;12.53;73.35
50302;BME280;36550;50.472;19.744;2023-04-24T05:56:00;97121.80;;;12.72;73.05
50302;BME280;36550;50.472;19.744;2023-04-24T05:58:45;97122.81;;;12.91;72.75
50302;BME280;36550;50.472;19.744;2023-04-24T06:01:30;97121.46;;;13.09;72.32
50302;BME280;36550;50.472;19.744;2023-04-24T06:04:15;97119.58;;;13.27;71.78
50302;BME280;36550;50.472;19.744;2023-04-24T06:06:59;97116.31;;;13.46;71.44
50302;BME280;36550;50.472;19.744;2023-04-24T06:09:43;97115.20;;;13.61;71.05
50302;BME280;36550;50.472;19.744;2023-04-24T06:12:28;97114.40;;;13.75;70.60
50302;BME280;36550;50.472;19.744;2023-04-24T06:15:11;97113.80;;;13.89;70.55
50302;BME280;36550;50.472;19.744;2023-04-24T06:17:56;97111.83;;;14.03;70.05
50302;BME280;36550;50.472;19.744;2023-04-24T06:20:40;97109.44;;;14.21;68.59
50302;BME280;36550;50.472;19.744;2023-04-24T06:23:24;97108.92;;;14.40;68.11
50302;BME280;36550;50.472;19.744;2023-04-24T06:26:08;97107.83;;;14.59;67.84
50302;BME280;36550;50.472;19.744;2023-04-24T06:28:53;97105.08;;;14.73;67.25
50302;BME280;36550;50.472;19.744;2023-04-24T06:31:40;97103.96;;;14.87;66.90
50302;BME280;36550;50.472;19.744;2023-04-24T06:34:24;97102.60;;;15.02;64.31
50302;BME280;36550;50.472;19.744;2023-04-24T06:37:08;97103.84;;;15.30;62.71
50302;BME280;36550;50.472;19.744;2023-04-24T06:39:52;97098.89;;;15.57;62.26
50302;BME280;36550;50.472;19.744;2023-04-24T06:42:36;97094.20;;;15.80;61.20
50302;BME280;36550;50.472;19.744;2023-04-24T06:45:20;97095.96;;;15.95;59.99
50302;BME280;36550;50.472;19.744;2023-04-24T06:48:04;97086.02;;;16.10;58.74
50302;BME280;36550;50.472;19.744;2023-04-24T06:50:48;97085.52;;;16.29;57.38
50302;BME280;36550;50.472;19.744;2023-04-24T06:53:32;97085.79;;;16.42;56.38
50302;BME280;36550;50.472;19.744;2023-04-24T06:56:16;97087.23;;;16.55;53.76
50302;BME280;36550;50.472;19.744;2023-04-24T06:58:59;97083.06;;;16.67;52.98
50302;BME280;36550;50.472;19.744;2023-04-24T07:01:43;97082.27;;;16.75;53.04
50302;BME280;36550;50.472;19.744;2023-04-24T07:04:27;97085.80;;;16.82;54.22
50302;BME280;36550;50.472;19.744;2023-04-24T07:07:12;97081.81;;;16.86;54.07
50302;BME280;36550;50.472;19.744;2023-04-24T07:09:56;97080.89;;;16.91;54.08
50302;BME280;36550;50.472;19.744;2023-04-24T07:12:41;97078.09;;;16.99;53.31
50302;BME280;36550;50.472;19.744;2023-04-24T07:15:25;97076.66;;;17.06;53.54
50302;BME280;36550;50.472;19.744;2023-04-24T07:18:09;97076.52;;;17.15;53.28
50302;BME280;36550;50.472;19.744;2023-04-24T07:20:54;97075.76;;;17.23;52.61
50302;BME280;36550;50.472;19.744;2023-04-24T07:23:38;97076.50;;;17.32;52.71
50302;BME280;36550;50.472;19.744;2023-04-24T07:26:22;97071.23;;;17.41;52.76
50302;BME280;36550;50.472;19.744;2023-04-24T07:29:07;97069.22;;;17.51;52.38
50302;BME280;36550;50.472;19.744;2023-04-24T07:31:51;97067.07;;;17.61;51.83
50302;BME280;36550;50.472;19.744;2023-04-24T07:34:35;97065.16;;;17.71;51.36
50302;BME280;36550;50.472;19.744;2023-04-24T07:37:19;97065.09;;;17.83;51.93
50302;BME280;36550;50.472;19.744;2023-04-24T07:40:03;97063.41;;;17.96;51.88
50302;BME280;36550;50.472;19.744;2023-04-24T07:42:47;97059.73;;;18.07;50.99
50302;BME280;36550;50.472;19.744;2023-04-24T07:45:34;97057.70;;;18.19;50.82
50302;BME280;36550;50.472;19.744;2023-04-24T07:48:20;97058.47;;;18.32;49.91
50302;BME280;36550;50.472;19.744;2023-04-24T07:51:05;97058.10;;;18.45;50.27
50302;BME280;36550;50.472;19.744;2023-04-24T07:53:49;97055.18;;;18.60;50.00
50302;BME280;36550;50.472;19.744;2023-04-24T07:56:34;97052.49;;;18.74;50.18
50302;BME280;36550;50.472;19.744;2023-04-24T07:59:18;97049.14;;;18.88;49.51
50302;BME280;36550;50.472;19.744;2023-04-24T08:02:02;97044.91;;;19.01;49.20
50302;BME280;36550;50.472;19.744;2023-04-24T08:04:46;97048.98;;;19.13;48.90
50302;BME280;36550;50.472;19.744;2023-04-24T08:07:31;97045.55;;;19.21;48.23
50302;BME280;36550;50.472;19.744;2023-04-24T08:10:15;97040.09;;;19.30;48.56
50302;BME280;36550;50.472;19.744;2023-04-24T08:12:59;97041.86;;;19.39;47.77
50302;BME280;36550;50.472;19.744;2023-04-24T08:15:43;97040.71;;;19.47;47.47
50302;BME280;36550;50.472;19.744;2023-04-24T08:18:27;97043.02;;;19.55;47.32
50302;BME280;36550;50.472;19.744;2023-04-24T08:21:11;97045.41;;;19.63;46.54
50302;BME280;36550;50.472;19.744;2023-04-24T08:23:56;97042.23;;;19.71;46.54
50302;BME280;36550;50.472;19.744;2023-04-24T08:26:40;97038.55;;;19.78;46.74
50302;BME280;36550;50.472;19.744;2023-04-24T08:29:24;97037.45;;;19.85;46.84
50302;BME280;36550;50.472;19.744;2023-04-24T08:32:08;97040.36;;;19.91;46.70
50302;BME280;36550;50.472;19.744;2023-04-24T08:34:52;97035.66;;;19.92;46.37
50302;BME280;36550;50.472;19.744;2023-04-24T08:37:36;97038.27;;;19.93;46.61
50302;BME280;36550;50.472;19.744;2023-04-24T08:40:26;97036.02;;;19.90;45.89
50302;BME280;36550;50.472;19.744;2023-04-24T08:43:13;97037.88;;;19.89;46.56
50302;BME280;36550;50.472;19.744;2023-04-24T08:45:57;97038.79;;;19.90;45.87
50302;BME280;36550;50.472;19.744;2023-04-24T08:48:43;97036.09;;;19.90;45.92
50302;BME280;36550;50.472;19.744;2023-04-24T08:51:27;97034.57;;;19.89;45.15
50302;BME280;36550;50.472;19.744;2023-04-24T08:54:12;97038.02;;;19.85;45.18
50302;BME280;36550;50.472;19.744;2023-04-24T08:56:59;97034.48;;;19.81;45.31
50302;BME280;36550;50.472;19.744;2023-04-24T08:59:47;97032.06;;;19.78;45.07
50302;BME280;36550;50.472;19.744;2023-04-24T09:02:31;97030.23;;;19.74;44.97
50302;BME280;36550;50.472;19.744;2023-04-24T09:05:17;97029.46;;;19.69;44.86
50302;BME280;36550;50.472;19.744;2023-04-24T09:08:04;97028.72;;;19.64;45.20
50302;BME280;36550;50.472;19.744;2023-04-24T09:10:48;97026.16;;;19.59;45.50
50302;BME280;36550;50.472;19.744;2023-04-24T09:13:33;97020.42;;;19.54;45.48
50302;BME280;36550;50.472;19.744;2023-04-24T09:16:17;97020.52;;;19.50;45.40
50302;BME280;36550;50.472;19.744;2023-04-24T09:19:01;97018.31;;;19.44;45.61
50302;BME280;36550;50.472;19.744;2023-04-24T09:21:46;97017.19;;;19.39;45.69
50302;BME280;36550;50.472;19.744;2023-04-24T09:24:30;97012.94;;;19.34;45.70
50302;BME280;36550;50.472;19.744;2023-04-24T09:27:15;97006.25;;;19.30;45.76
50302;BME280;36550;50.472;19.744;2023-04-24T09:30:01;97005.38;;;19.27;45.66
50302;BME280;36550;50.472;19.744;2023-04-24T09:32:45;97001.80;;;19.28;46.10
50302;BME280;36550;50.472;19.744;2023-04-24T09:35:31;97000.96;;;19.29;45.74
50302;BME280;36550;50.472;19.744;2023-04-24T09:38:16;96997.55;;;19.29;45.59
50302;BME280;36550;50.472;19.744;2023-04-24T09:41:05;96994.89;;;19.29;45.23
50302;BME280;36550;50.472;19.744;2023-04-24T09:43:49;96991.60;;;19.29;44.71
50302;BME280;36550;50.472;19.744;2023-04-24T09:46:34;96992.35;;;19.29;45.01
50302;BME280;36550;50.472;19.744;2023-04-24T09:49:29;96991.83;;;19.29;44.18
50302;BME280;36550;50.472;19.744;2023-04-24T09:52:15;96994.61;;;19.28;44.24
50302;BME280;36550;50.472;19.744;2023-04-24T09:54:59;96987.65;;;19.29;44.53
50302;BME280;36550;50.472;19.744;2023-04-24T09:57:54;96983.67;;;19.32;44.34
50302;BME280;36550;50.472;19.744;2023-04-24T10:00:38;96985.80;;;19.34;44.25
50302;BME280;36550;50.472;19.744;2023-04-24T10:03:30;96978.61;;;19.36;43.96
50302;BME280;36550;50.472;19.744;2023-04-24T10:06:14;96977.57;;;19.38;42.86
50302;BME280;36550;50.472;19.744;2023-04-24T10:08:59;96976.66;;;19.40;41.12
50302;BME280;36550;50.472;19.744;2023-04-24T10:11:45;96976.06;;;19.40;40.33
50302;BME280;36550;50.472;19.744;2023-04-24T10:14:30;96975.12;;;19.43;41.09
50302;BME280;36550;50.472;19.744;2023-04-24T10:17:14;96976.88;;;19.46;41.03
50302;BME280;36550;50.472;19.744;2023-04-24T10:19:59;96974.60;;;19.48;39.55
50302;BME280;36550;50.472;19.744;2023-04-24T10:22:47;96969.45;;;19.49;39.22
50302;BME280;36550;50.472;19.744;2023-04-24T10:25:34;96972.12;;;19.50;38.23
50302;BME280;36550;50.472;19.744;2023-04-24T10:28:19;96972.17;;;19.53;38.72
50302;BME280;36550;50.472;19.744;2023-04-24T10:31:05;96972.86;;;19.61;38.79
50302;BME280;36550;50.472;19.744;2023-04-24T10:33:51;96966.08;;;19.67;36.54
50302;BME280;36550;50.472;19.744;2023-04-24T10:36:49;96959.51;;;19.69;37.54
50302;BME280;36550;50.472;19.744;2023-04-24T10:39:35;96958.27;;;19.73;37.43
50302;BME280;36550;50.472;19.744;2023-04-24T10:42:21;96953.42;;;19.76;37.65
50302;BME280;36550;50.472;19.744;2023-04-24T10:45:06;96954.52;;;19.81;38.29
50302;BME280;36550;50.472;19.744;2023-04-24T10:47:58;96948.96;;;19.85;37.61
50302;BME280;36550;50.472;19.744;2023-04-24T10:50:47;96944.51;;;19.86;36.31
50302;BME280;36550;50.472;19.744;2023-04-24T10:53:34;96941.66;;;19.87;36.72
50302;BME280;36550;50.472;19.744;2023-04-24T10:56:18;96938.67;;;19.88;37.20
50302;BME280;36550;50.472;19.744;2023-04-24T10:59:07;96944.54;;;19.94;37.46
50302;BME280;36550;50.472;19.744;2023-04-24T11:01:54;96941.91;;;20.01;36.47
50302;BME280;36550;50.472;19.744;2023-04-24T11:04:39;96940.37;;;20.05;36.72
50302;BME280;36550;50.472;19.744;2023-04-24T11:07:23;96937.41;;;20.11;37.63
50302;BME280;36550;50.472;19.744;2023-04-24T11:10:07;96934.64;;;20.16;37.45
50302;BME280;36550;50.472;19.744;2023-04-24T11:12:51;96929.34;;;20.21;37.03
50302;BME280;36550;50.472;19.744;2023-04-24T11:15:35;96931.13;;;20.26;36.22
50302;BME280;36550;50.472;19.744;2023-04-24T11:18:19;96925.08;;;20.30;35.86
50302;BME280;36550;50.472;19.744;2023-04-24T11:21:10;96930.43;;;20.36;36.67
50302;BME280;36550;50.472;19.744;2023-04-24T11:23:56;96935.07;;;20.45;37.23
50302;BME280;36550;50.472;19.744;2023-04-24T11:26:39;96929.13;;;20.51;37.33
50302;BME280;36550;50.472;19.744;2023-04-24T11:32:42;96927.33;;;20.52;35.74
50302;BME280;36550;50.472;19.744;2023-04-24T11:35:27;96920.50;;;20.52;36.25
50302;BME280;36550;50.472;19.744;2023-04-24T11:38:13;96916.19;;;20.53;36.38
50302;BME280;36550;50.472;19.744;2023-04-24T11:40:58;96915.88;;;20.57;36.50
50302;BME280;36550;50.472;19.744;2023-04-24T11:43:43;96914.89;;;20.61;35.60
50302;BME280;36550;50.472;19.744;2023-04-24T11:46:29;96915.92;;;20.59;34.95
50302;BME280;36550;50.472;19.744;2023-04-24T11:49:13;96917.09;;;20.55;35.02
50302;BME280;36550;50.472;19.744;2023-04-24T11:51:57;96915.24;;;20.54;35.29
50302;BME280;36550;50.472;19.744;2023-04-24T11:54:47;96910.66;;;20.54;35.74
50302;BME280;36550;50.472;19.744;2023-04-24T11:57:32;96905.92;;;20.54;35.73
50302;BME280;36550;50.472;19.744;2023-04-24T12:00:21;96904.52;;;20.54;35.76
50302;BME280;36550;50.472;19.744;2023-04-24T12:03:10;96901.66;;;20.58;35.66
50302;BME280;36550;50.472;19.744;2023-04-24T12:06:09;96901.92;;;20.60;35.59
50302;BME280;36550;50.472;19.744;2023-04-24T12:08:53;96889.90;;;20.63;35.60
50302;BME280;36550;50.472;19.744;2023-04-24T12:11:38;96888.86;;;20.66;35.19
50302;BME280;36550;50.472;19.744;2023-04-24T12:14:47;96882.86;;;20.70;35.39
50302;BME280;36550;50.472;19.744;2023-04-24T12:17:32;96877.88;;;20.74;35.72
50302;BME280;36550;50.472;19.744;2023-04-24T12:20:17;96872.66;;;20.78;35.92
50302;BME280;36550;50.472;19.744;2023-04-24T12:23:06;96871.86;;;20.81;35.10
50302;BME280;36550;50.472;19.744;2023-04-24T12:25:51;96869.73;;;20.79;34.34
50302;BME280;36550;50.472;19.744;2023-04-24T12:28:38;96872.83;;;20.71;33.63
50302;BME280;36550;50.472;19.744;2023-04-24T12:31:23;96865.36;;;20.71;34.31
50302;BME280;36550;50.472;19.744;2023-04-24T12:34:21;96859.71;;;20.75;34.87
50302;BME280;36550;50.472;19.744;2023-04-24T12:37:11;96856.89;;;20.79;34.81
50302;BME280;36550;50.472;19.744;2023-04-24T12:40:09;96852.86;;;20.80;34.26
50302;BME280;36550;50.472;19.744;2023-04-24T12:42:53;96850.02;;;20.81;34.81
50302;BME280;36550;50.472;19.744;2023-04-24T12:45:37;96849.87;;;20.84;35.52
50302;BME280;36550;50.472;19.744;2023-04-24T12:48:21;96844.55;;;20.87;35.56
50302;BME280;36550;50.472;19.744;2023-04-24T12:51:05;96842.70;;;20.88;34.39
50302;BME280;36550;50.472;19.744;2023-04-24T12:53:50;96844.73;;;20.85;34.17
50302;BME280;36550;50.472;19.744;2023-04-24T12:56:34;96844.73;;;20.83;34.29
50302;BME280;36550;50.472;19.744;2023-04-24T12:59:23;96845.05;;;20.81;35.18
50302;BME280;36550;50.472;19.744;2023-04-24T13:02:07;96844.67;;;20.81;34.46
50302;BME280;36550;50.472;19.744;2023-04-24T13:04:53;96841.20;;;20.80;32.98
50302;BME280;36550;50.472;19.744;2023-04-24T13:07:37;96838.28;;;20.79;33.65
50302;BME280;36550;50.472;19.744;2023-04-24T13:10:21;96838.39;;;20.80;33.52
50302;BME280;36550;50.472;19.744;2023-04-24T13:13:05;96831.45;;;20.80;32.03
50302;BME280;36550;50.472;19.744;2023-04-24T13:15:49;96828.88;;;20.80;33.55
50302;BME280;36550;50.472;19.744;2023-04-24T13:18:33;96830.00;;;20.84;33.04
50302;BME280;36550;50.472;19.744;2023-04-24T13:21:17;96830.83;;;20.86;33.28
50302;BME280;36550;50.472;19.744;2023-04-24T13:24:01;96826.20;;;20.89;33.13
50302;BME280;36550;50.472;19.744;2023-04-24T13:26:44;96824.83;;;20.96;33.51
50302;BME280;36550;50.472;19.744;2023-04-24T13:29:29;96824.61;;;21.03;34.50
50302;BME280;36550;50.472;19.744;2023-04-24T13:32:13;96818.69;;;21.11;35.44
50302;BME280;36550;50.472;19.744;2023-04-24T13:34:57;96816.45;;;21.18;35.26
50302;BME280;36550;50.472;19.744;2023-04-24T13:37:41;96816.89;;;21.22;35.28
50302;BME280;36550;50.472;19.744;2023-04-24T13:40:25;96816.27;;;21.26;35.84
50302;BME280;36550;50.472;19.744;2023-04-24T13:43:08;96823.54;;;21.32;36.78
50302;BME280;36550;50.472;19.744;2023-04-24T13:45:53;96823.20;;;21.31;37.14
50302;BME280;36550;50.472;19.744;2023-04-24T13:48:36;96826.05;;;21.17;37.19
50302;BME280;36550;50.472;19.744;2023-04-24T13:51:20;96823.27;;;21.07;37.49
50302;BME280;36550;50.472;19.744;2023-04-24T13:54:05;96832.02;;;20.92;37.64
50302;BME280;36550;50.472;19.744;2023-04-24T13:56:49;96835.79;;;20.70;37.72
50302;BME280;36550;50.472;19.744;2023-04-24T13:59:34;96836.60;;;20.50;38.19
50302;BME280;36550;50.472;19.744;2023-04-24T14:02:18;96832.77;;;20.33;38.74
50302;BME280;36550;50.472;19.744;2023-04-24T14:05:02;96836.45;;;20.12;38.93
50302;BME280;36550;50.472;19.744;2023-04-24T14:07:46;96839.52;;;19.86;39.19
50302;BME280;36550;50.472;19.744;2023-04-24T14:10:31;96835.84;;;19.61;39.90
50302;BME280;36550;50.472;19.744;2023-04-24T14:13:15;96844.25;;;19.39;40.42
50302;BME280;36550;50.472;19.744;2023-04-24T14:15:59;96844.27;;;19.20;40.79
50302;BME280;36550;50.472;19.744;2023-04-24T14:18:43;96843.87;;;19.08;41.47
50302;BME280;36550;50.472;19.744;2023-04-24T14:21:27;96842.27;;;18.99;41.72
50302;BME280;36550;50.472;19.744;2023-04-24T14:24:11;96847.84;;;18.86;41.95
50302;BME280;36550;50.472;19.744;2023-04-24T14:26:55;96849.98;;;18.71;42.35
50302;BME280;36550;50.472;19.744;2023-04-24T14:29:40;96852.36;;;18.52;42.86